sensor_id;sensor_type;location;lat;lon;timestamp;P1;durP1;ratioP1;P2;durP2;ratioP2
5999;SDS011;3028;49.468;7.694;2024-03-07T00:00:47;11.05;;;10.05;;
5999;SDS011;3028;49.468;7.694;2024-03-07T00:02:50;13.95;;;11.23;;
5999;SDS011;3028;49.468;7.694;2024-03-07T00:04:53;9.52;;;8.63;;
5999;SDS011;3028;49.468;7.694;2024-03-07T00:06:54;11.82;;;10.93;;
5999;SDS011;3028;49.468;7.694;2024-03-07T00:08:56;9.63;;;8.68;;
5999;SDS011;3028;49.468;7.694;2024-03-07T00:10:58;10.32;;;8.52;;
5999;SDS011;3028;49.468;7.694;2024-03-07T00:13:00;12.15;;;10.50;;
5999;SDS011;3028;49.468;7.694;2024-03-07T00:15:11;11.85;;;10.63;;
5999;SDS011;3028;49.468;7.694;2024-03-07T00:17:14;10.82;;;9.80;;
5999;SDS011;3028;49.468;7.694;2024-03-07T00:19:16;10.52;;;9.15;;
5999;SDS011;3028;49.468;7.694;2024-03-07T00:21:18;11.40;;;10.15;;
5999;SDS011;3028;49.468;7.694;2024-03-07T00:23:19;10.20;;;9.32;;
5999;SDS011;3028;49.468;7.694;2024-03-07T00:25:21;10.55;;;9.63;;
5999;SDS011;3028;49.468;7.694;2024-03-07T00:27:23;10.68;;;9.60;;
5999;SDS011;3028;49.468;7.694;2024-03-07T00:29:25;11.10;;;9.85;;
5999;SDS011;3028;49.468;7.694;2024-03-07T00:31:29;9.65;;;8.65;;
5999;SDS011;3028;49.468;7.694;2024-03-07T00:33:31;11.23;;;9.52;;
5999;SDS011;3028;49.468;7.694;2024-03-07T00:35:54;27.98;;;9.05;;
5999;SDS011;3028;49.468;7.694;2024-03-07T00:37:56;9.38;;;8.23;;
5999;SDS011;3028;49.468;7.694;2024-03-07T00:39:58;15.38;;;10.60;;
5999;SDS011;3028;49.468;7.694;2024-03-07T00:42:00;10.40;;;9.43;;
5999;SDS011;3028;49.468;7.694;2024-03-07T00:44:03;15.00;;;10.63;;
5999;SDS011;3028;49.468;7.694;2024-03-07T00:46:05;12.55;;;11.32;;
5999;SDS011;3028;49.468;7.694;2024-03-07T00:48:08;14.70;;;11.25;;
5999;SDS011;3028;49.468;7.694;2024-03-07T00:50:10;11.27;;;10.27;;
5999;SDS011;3028;49.468;7.694;2024-03-07T00:52:13;11.55;;;9.63;;
5999;SDS011;3028;49.468;7.694;2024-03-07T00:54:15;9.70;;;8.80;;
5999;SDS011;3028;49.468;7.694;2024-03-07T00:56:17;12.38;;;11.20;;
5999;SDS011;3028;49.468;7.694;2024-03-07T00:58:19;12.38;;;10.65;;
5999;SDS011;3028;49.468;7.694;2024-03-07T01:00:21;15.38;;;10.73;;
5999;SDS011;3028;49.468;7.694;2024-03-07T01:02:23;8.57;;;7.88;;
5999;SDS011;3028;49.468;7.694;2024-03-07T01:04:26;13.75;;;8.90;;
5999;SDS011;3028;49.468;7.694;2024-03-07T01:06:32;9.95;;;8.95;;
5999;SDS011;3028;49.468;7.694;2024-03-07T01:08:34;10.40;;;9.50;;
5999;SDS011;3028;49.468;7.694;2024-03-07T01:10:38;11.52;;;10.35;;
5999;SDS011;3028;49.468;7.694;2024-03-07T01:12:39;10.30;;;8.18;;
5999;SDS011;3028;49.468;7.694;2024-03-07T01:14:41;9.70;;;8.70;;
5999;SDS011;3028;49.468;7.694;2024-03-07T01:16:43;9.00;;;8.07;;
5999;SDS011;3028;49.468;7.694;2024-03-07T01:18:44;9.38;;;8.50;;
5999;SDS011;3028;49.468;7.694;2024-03-07T01:20:46;9.38;;;8.65;;
5999;SDS011;3028;49.468;7.694;2024-03-07T01:22:48;8.18;;;7.43;;
5999;SDS011;3028;49.468;7.694;2024-03-07T01:24:52;8.50;;;7.78;;
5999;SDS011;3028;49.468;7.694;2024-03-07T01:26:54;9.70;;;8.75;;
5999;SDS011;3028;49.468;7.694;2024-03-07T01:28:56;9.43;;;8.52;;
5999;SDS011;3028;49.468;7.694;2024-03-07T01:30:59;10.48;;;9.50;;
5999;SDS011;3028;49.468;7.694;2024-03-07T01:33:01;10.38;;;9.40;;
5999;SDS011;3028;49.468;7.694;2024-03-07T01:35:03;10.48;;;9.52;;
5999;SDS011;3028;49.468;7.694;2024-03-07T01:37:08;9.30;;;8.43;;
5999;SDS011;3028;49.468;7.694;2024-03-07T01:39:09;10.77;;;9.38;;
5999;SDS011;3028;49.468;7.694;2024-03-07T01:41:12;9.70;;;8.80;;
5999;SDS011;3028;49.468;7.694;2024-03-07T01:43:15;9.55;;;8.75;;
5999;SDS011;3028;49.468;7.694;2024-03-07T01:45:17;10.73;;;9.68;;
5999;SDS011;3028;49.468;7.694;2024-03-07T01:47:22;20.17;;;10.18;;
5999;SDS011;3028;49.468;7.694;2024-03-07T01:49:23;9.57;;;8.68;;
5999;SDS011;3028;49.468;7.694;2024-03-07T01:51:25;13.65;;;11.30;;
5999;SDS011;3028;49.468;7.694;2024-03-07T01:53:27;11.35;;;10.43;;
5999;SDS011;3028;49.468;7.694;2024-03-07T01:55:29;9.80;;;8.70;;
5999;SDS011;3028;49.468;7.694;2024-03-07T01:57:31;14.38;;;9.77;;
5999;SDS011;3028;49.468;7.694;2024-03-07T01:59:32;11.55;;;10.45;;
5999;SDS011;3028;49.468;7.694;2024-03-07T02:01:34;10.65;;;9.75;;
5999;SDS011;3028;49.468;7.694;2024-03-07T02:03:38;14.38;;;9.35;;
5999;SDS011;3028;49.468;7.694;2024-03-07T02:05:40;10.48;;;9.48;;
5999;SDS011;3028;49.468;7.694;2024-03-07T02:07:43;10.93;;;9.82;;
5999;SDS011;3028;49.468;7.694;2024-03-07T02:09:45;9.93;;;8.75;;
5999;SDS011;3028;49.468;7.694;2024-03-07T02:11:49;14.63;;;9.90;;
5999;SDS011;3028;49.468;7.694;2024-03-07T02:13:51;10.02;;;9.05;;
5999;SDS011;3028;49.468;7.694;2024-03-07T02:15:52;10.38;;;9.48;;
5999;SDS011;3028;49.468;7.694;2024-03-07T02:17:54;10.75;;;9.88;;
5999;SDS011;3028;49.468;7.694;2024-03-07T02:19:56;11.77;;;10.57;;
5999;SDS011;3028;49.468;7.694;2024-03-07T02:21:59;11.27;;;9.93;;
5999;SDS011;3028;49.468;7.694;2024-03-07T02:24:01;13.75;;;8.85;;
5999;SDS011;3028;49.468;7.694;2024-03-07T02:26:02;11.90;;;10.77;;
5999;SDS011;3028;49.468;7.694;2024-03-07T02:28:05;13.43;;;10.50;;
5999;SDS011;3028;49.468;7.694;2024-03-07T02:30:07;9.63;;;8.85;;
5999;SDS011;3028;49.468;7.694;2024-03-07T02:32:10;11.93;;;10.70;;
5999;SDS011;3028;49.468;7.694;2024-03-07T02:34:13;13.77;;;11.85;;
5999;SDS011;3028;49.468;7.694;2024-03-07T02:36:14;11.90;;;10.82;;
5999;SDS011;3028;49.468;7.694;2024-03-07T02:38:16;11.57;;;10.57;;
5999;SDS011;3028;49.468;7.694;2024-03-07T02:40:19;10.57;;;9.57;;
5999;SDS011;3028;49.468;7.694;2024-03-07T02:42:21;12.70;;;11.50;;
5999;SDS011;3028;49.468;7.694;2024-03-07T02:44:22;10.85;;;8.77;;
5999;SDS011;3028;49.468;7.694;2024-03-07T02:46:24;9.25;;;8.30;;
5999;SDS011;3028;49.468;7.694;2024-03-07T02:48:26;12.38;;;10.27;;
5999;SDS011;3028;49.468;7.694;2024-03-07T02:50:28;12.18;;;11.07;;
5999;SDS011;3028;49.468;7.694;2024-03-07T02:52:30;10.55;;;9.50;;
5999;SDS011;3028;49.468;7.694;2024-03-07T02:54:31;15.05;;;10.27;;
5999;SDS011;3028;49.468;7.694;2024-03-07T02:56:34;9.60;;;8.70;;
5999;SDS011;3028;49.468;7.694;2024-03-07T02:58:36;15.52;;;10.80;;
5999;SDS011;3028;49.468;7.694;2024-03-07T03:00:38;10.30;;;9.27;;
5999;SDS011;3028;49.468;7.694;2024-03-07T03:02:40;11.65;;;10.55;;
5999;SDS011;3028;49.468;7.694;2024-03-07T03:04:42;11.85;;;10.88;;
5999;SDS011;3028;49.468;7.694;2024-03-07T03:06:44;14.23;;;11.18;;
5999;SDS011;3028;49.468;7.694;2024-03-07T03:08:47;10.57;;;9.48;;
5999;SDS011;3028;49.468;7.694;2024-03-07T03:10:49;11.88;;;10.85;;
5999;SDS011;3028;49.468;7.694;2024-03-07T03:12:53;9.95;;;9.20;;
5999;SDS011;3028;49.468;7.694;2024-03-07T03:14:55;12.07;;;10.10;;
5999;SDS011;3028;49.468;7.694;2024-03-07T03:16:57;11.30;;;10.30;;
5999;SDS011;3028;49.468;7.694;2024-03-07T03:18:58;11.40;;;10.25;;
5999;SDS011;3028;49.468;7.694;2024-03-07T03:21:00;11.43;;;9.98;;
5999;SDS011;3028;49.468;7.694;2024-03-07T03:23:03;10.68;;;9.75;;
5999;SDS011;3028;49.468;7.694;2024-03-07T03:25:20;8.35;;;7.57;;
5999;SDS011;3028;49.468;7.694;2024-03-07T03:27:22;11.60;;;10.30;;
5999;SDS011;3028;49.468;7.694;2024-03-07T03:29:24;11.85;;;10.65;;
5999;SDS011;3028;49.468;7.694;2024-03-07T03:31:26;8.57;;;7.88;;
5999;SDS011;3028;49.468;7.694;2024-03-07T03:33:28;11.65;;;10.60;;
5999;SDS011;3028;49.468;7.694;2024-03-07T03:35:30;10.25;;;9.05;;
5999;SDS011;3028;49.468;7.694;2024-03-07T03:37:32;18.98;;;9.48;;
5999;SDS011;3028;49.468;7.694;2024-03-07T03:39:33;10.73;;;9.63;;
5999;SDS011;3028;49.468;7.694;2024-03-07T03:41:35;11.27;;;9.70;;
5999;SDS011;3028;49.468;7.694;2024-03-07T03:43:37;9.55;;;8.50;;
5999;SDS011;3028;49.468;7.694;2024-03-07T03:45:38;17.70;;;9.35;;
5999;SDS011;3028;49.468;7.694;2024-03-07T03:47:40;12.40;;;9.77;;
5999;SDS011;3028;49.468;7.694;2024-03-07T03:49:43;11.10;;;9.98;;
5999;SDS011;3028;49.468;7.694;2024-03-07T03:51:45;11.25;;;10.38;;
5999;SDS011;3028;49.468;7.694;2024-03-07T03:53:49;10.98;;;9.98;;
5999;SDS011;3028;49.468;7.694;2024-03-07T03:55:50;10.40;;;9.38;;
5999;SDS011;3028;49.468;7.694;2024-03-07T03:57:52;23.65;;;12.20;;
5999;SDS011;3028;49.468;7.694;2024-03-07T03:59:55;12.38;;;11.27;;
5999;SDS011;3028;49.468;7.694;2024-03-07T04:01:57;10.13;;;9.10;;
5999;SDS011;3028;49.468;7.694;2024-03-07T04:03:59;10.80;;;8.05;;
5999;SDS011;3028;49.468;7.694;2024-03-07T04:06:01;14.48;;;12.82;;
5999;SDS011;3028;49.468;7.694;2024-03-07T04:08:03;9.82;;;8.93;;
5999;SDS011;3028;49.468;7.694;2024-03-07T04:10:05;10.52;;;9.55;;
5999;SDS011;3028;49.468;7.694;2024-03-07T04:12:11;12.65;;;11.23;;
5999;SDS011;3028;49.468;7.694;2024-03-07T04:14:13;9.77;;;8.98;;
5999;SDS011;3028;49.468;7.694;2024-03-07T04:16:15;10.25;;;9.25;;
5999;SDS011;3028;49.468;7.694;2024-03-07T04:18:18;16.27;;;10.50;;
5999;SDS011;3028;49.468;7.694;2024-03-07T04:20:21;11.90;;;10.60;;
5999;SDS011;3028;49.468;7.694;2024-03-07T04:22:23;11.25;;;10.05;;
5999;SDS011;3028;49.468;7.694;2024-03-07T04:24:25;13.60;;;8.90;;
5999;SDS011;3028;49.468;7.694;2024-03-07T04:26:27;11.60;;;10.43;;
5999;SDS011;3028;49.468;7.694;2024-03-07T04:28:29;9.95;;;9.02;;
5999;SDS011;3028;49.468;7.694;2024-03-07T04:30:31;14.77;;;10.55;;
5999;SDS011;3028;49.468;7.694;2024-03-07T04:32:33;10.55;;;8.82;;
5999;SDS011;3028;49.468;7.694;2024-03-07T04:34:38;12.15;;;9.68;;
5999;SDS011;3028;49.468;7.694;2024-03-07T04:36:40;11.13;;;10.23;;
5999;SDS011;3028;49.468;7.694;2024-03-07T04:38:42;19.88;;;11.55;;
5999;SDS011;3028;49.468;7.694;2024-03-07T04:40:47;18.92;;;8.25;;
5999;SDS011;3028;49.468;7.694;2024-03-07T04:42:49;11.68;;;10.65;;
5999;SDS011;3028;49.468;7.694;2024-03-07T04:44:51;11.07;;;8.40;;
5999;SDS011;3028;49.468;7.694;2024-03-07T04:46:53;11.02;;;9.93;;
5999;SDS011;3028;49.468;7.694;2024-03-07T04:48:57;12.00;;;10.75;;
5999;SDS011;3028;49.468;7.694;2024-03-07T04:50:58;13.23;;;10.30;;
5999;SDS011;3028;49.468;7.694;2024-03-07T04:53:00;15.05;;;10.57;;
5999;SDS011;3028;49.468;7.694;2024-03-07T04:55:04;14.73;;;9.98;;
5999;SDS011;3028;49.468;7.694;2024-03-07T04:57:12;11.15;;;10.25;;
5999;SDS011;3028;49.468;7.694;2024-03-07T04:59:14;13.15;;;9.60;;
5999;SDS011;3028;49.468;7.694;2024-03-07T05:01:17;11.90;;;10.55;;
5999;SDS011;3028;49.468;7.694;2024-03-07T05:03:19;8.98;;;8.18;;
5999;SDS011;3028;49.468;7.694;2024-03-07T05:05:21;15.35;;;10.18;;
5999;SDS011;3028;49.468;7.694;2024-03-07T05:07:28;10.43;;;9.45;;
5999;SDS011;3028;49.468;7.694;2024-03-07T05:09:29;13.30;;;12.02;;
5999;SDS011;3028;49.468;7.694;2024-03-07T05:11:32;11.27;;;9.55;;
5999;SDS011;3028;49.468;7.694;2024-03-07T05:13:34;10.25;;;9.30;;
5999;SDS011;3028;49.468;7.694;2024-03-07T05:15:36;12.68;;;9.65;;
5999;SDS011;3028;49.468;7.694;2024-03-07T05:17:41;13.60;;;12.43;;
5999;SDS011;3028;49.468;7.694;2024-03-07T05:19:45;11.55;;;10.35;;
5999;SDS011;3028;49.468;7.694;2024-03-07T05:21:47;10.77;;;9.73;;
5999;SDS011;3028;49.468;7.694;2024-03-07T05:23:49;11.70;;;10.25;;
5999;SDS011;3028;49.468;7.694;2024-03-07T05:25:50;10.32;;;9.43;;
5999;SDS011;3028;49.468;7.694;2024-03-07T05:27:52;12.23;;;11.00;;
5999;SDS011;3028;49.468;7.694;2024-03-07T05:29:54;9.95;;;8.95;;
5999;SDS011;3028;49.468;7.694;2024-03-07T05:32:17;10.32;;;8.57;;
5999;SDS011;3028;49.468;7.694;2024-03-07T05:34:28;13.18;;;11.70;;
5999;SDS011;3028;49.468;7.694;2024-03-07T05:36:31;13.82;;;12.02;;
5999;SDS011;3028;49.468;7.694;2024-03-07T05:38:33;12.68;;;10.50;;
5999;SDS011;3028;49.468;7.694;2024-03-07T05:40:36;10.27;;;9.27;;
5999;SDS011;3028;49.468;7.694;2024-03-07T05:42:38;12.95;;;11.45;;
5999;SDS011;3028;49.468;7.694;2024-03-07T05:44:43;11.82;;;10.50;;
5999;SDS011;3028;49.468;7.694;2024-03-07T05:46:45;16.58;;;12.20;;
5999;SDS011;3028;49.468;7.694;2024-03-07T05:48:51;11.20;;;10.07;;
5999;SDS011;3028;49.468;7.694;2024-03-07T05:50:57;11.35;;;10.10;;
5999;SDS011;3028;49.468;7.694;2024-03-07T05:53:00;14.38;;;13.25;;
5999;SDS011;3028;49.468;7.694;2024-03-07T05:55:02;14.68;;;10.60;;
5999;SDS011;3028;49.468;7.694;2024-03-07T05:57:07;10.82;;;9.68;;
5999;SDS011;3028;49.468;7.694;2024-03-07T05:59:09;13.98;;;12.57;;
5999;SDS011;3028;49.468;7.694;2024-03-07T06:01:11;13.55;;;12.23;;
5999;SDS011;3028;49.468;7.694;2024-03-07T06:03:13;11.10;;;10.10;;
5999;SDS011;3028;49.468;7.694;2024-03-07T06:05:17;10.55;;;9.45;;
5999;SDS011;3028;49.468;7.694;2024-03-07T06:07:20;24.67;;;12.52;;
5999;SDS011;3028;49.468;7.694;2024-03-07T06:09:22;12.85;;;10.95;;
5999;SDS011;3028;49.468;7.694;2024-03-07T06:11:24;12.55;;;10.57;;
5999;SDS011;3028;49.468;7.694;2024-03-07T06:13:26;11.00;;;9.90;;
5999;SDS011;3028;49.468;7.694;2024-03-07T06:15:28;13.05;;;11.52;;
5999;SDS011;3028;49.468;7.694;2024-03-07T06:17:30;11.60;;;10.18;;
5999;SDS011;3028;49.468;7.694;2024-03-07T06:19:32;12.02;;;10.93;;
5999;SDS011;3028;49.468;7.694;2024-03-07T06:21:34;10.57;;;9.15;;
5999;SDS011;3028;49.468;7.694;2024-03-07T06:23:36;12.52;;;11.43;;
5999;SDS011;3028;49.468;7.694;2024-03-07T06:25:38;9.48;;;8.63;;
5999;SDS011;3028;49.468;7.694;2024-03-07T06:27:52;11.52;;;10.38;;
5999;SDS011;3028;49.468;7.694;2024-03-07T06:29:54;10.55;;;9.48;;
5999;SDS011;3028;49.468;7.694;2024-03-07T06:31:56;13.07;;;9.90;;
5999;SDS011;3028;49.468;7.694;2024-03-07T06:33:57;11.15;;;9.60;;
5999;SDS011;3028;49.468;7.694;2024-03-07T06:35:59;13.50;;;11.88;;
5999;SDS011;3028;49.468;7.694;2024-03-07T06:38:03;12.13;;;11.02;;
5999;SDS011;3028;49.468;7.694;2024-03-07T06:40:05;9.85;;;8.88;;
5999;SDS011;3028;49.468;7.694;2024-03-07T06:42:10;11.65;;;10.52;;
5999;SDS011;3028;49.468;7.694;2024-03-07T06:44:13;10.13;;;9.27;;
5999;SDS011;3028;49.468;7.694;2024-03-07T06:46:15;11.48;;;10.55;;
5999;SDS011;3028;49.468;7.694;2024-03-07T06:48:17;11.35;;;10.35;;
5999;SDS011;3028;49.468;7.694;2024-03-07T06:50:19;9.57;;;8.63;;
5999;SDS011;3028;49.468;7.694;2024-03-07T06:52:36;10.98;;;10.00;;
5999;SDS011;3028;49.468;7.694;2024-03-07T06:54:38;10.98;;;9.85;;
5999;SDS011;3028;49.468;7.694;2024-03-07T06:56:40;9.00;;;8.15;;
5999;SDS011;3028;49.468;7.694;2024-03-07T06:58:45;16.33;;;12.23;;
5999;SDS011;3028;49.468;7.694;2024-03-07T07:00:47;12.00;;;10.48;;
5999;SDS011;3028;49.468;7.694;2024-03-07T07:02:49;10.85;;;9.75;;
5999;SDS011;3028;49.468;7.694;2024-03-07T07:04:52;9.73;;;8.27;;
5999;SDS011;3028;49.468;7.694;2024-03-07T07:06:53;9.68;;;8.65;;
5999;SDS011;3028;49.468;7.694;2024-03-07T07:08:56;12.23;;;11.02;;
5999;SDS011;3028;49.468;7.694;2024-03-07T07:11:00;11.68;;;10.55;;
5999;SDS011;3028;49.468;7.694;2024-03-07T07:13:04;10.63;;;9.57;;
5999;SDS011;3028;49.468;7.694;2024-03-07T07:15:06;10.93;;;9.90;;
5999;SDS011;3028;49.468;7.694;2024-03-07T07:17:09;11.40;;;10.30;;
5999;SDS011;3028;49.468;7.694;2024-03-07T07:19:11;11.50;;;10.30;;
5999;SDS011;3028;49.468;7.694;2024-03-07T07:21:14;10.57;;;9.50;;
5999;SDS011;3028;49.468;7.694;2024-03-07T07:23:17;10.63;;;9.50;;
5999;SDS011;3028;49.468;7.694;2024-03-07T07:25:20;10.32;;;8.63;;
5999;SDS011;3028;49.468;7.694;2024-03-07T07:27:22;10.50;;;8.48;;
5999;SDS011;3028;49.468;7.694;2024-03-07T07:29:24;15.23;;;11.60;;
5999;SDS011;3028;49.468;7.694;2024-03-07T07:31:26;9.15;;;8.23;;
5999;SDS011;3028;49.468;7.694;2024-03-07T07:33:28;14.30;;;12.20;;
5999;SDS011;3028;49.468;7.694;2024-03-07T07:35:29;8.93;;;8.18;;
5999;SDS011;3028;49.468;7.694;2024-03-07T07:37:32;11.50;;;10.30;;
5999;SDS011;3028;49.468;7.694;2024-03-07T07:39:34;10.25;;;9.18;;
5999;SDS011;3028;49.468;7.694;2024-03-07T07:41:36;11.23;;;9.27;;
5999;SDS011;3028;49.468;7.694;2024-03-07T07:43:41;10.18;;;9.20;;
5999;SDS011;3028;49.468;7.694;2024-03-07T07:45:44;10.30;;;9.40;;
5999;SDS011;3028;49.468;7.694;2024-03-07T07:47:46;9.15;;;8.38;;
5999;SDS011;3028;49.468;7.694;2024-03-07T07:49:53;11.18;;;8.55;;
5999;SDS011;3028;49.468;7.694;2024-03-07T07:51:54;11.25;;;8.73;;
5999;SDS011;3028;49.468;7.694;2024-03-07T07:53:56;10.35;;;9.48;;
5999;SDS011;3028;49.468;7.694;2024-03-07T07:55:58;9.60;;;7.47;;
5999;SDS011;3028;49.468;7.694;2024-03-07T07:58:00;13.27;;;8.43;;
5999;SDS011;3028;49.468;7.694;2024-03-07T08:00:05;9.95;;;9.05;;
5999;SDS011;3028;49.468;7.694;2024-03-07T08:02:10;11.55;;;6.28;;
5999;SDS011;3028;49.468;7.694;2024-03-07T08:04:12;13.45;;;7.60;;
5999;SDS011;3028;49.468;7.694;2024-03-07T08:06:13;10.00;;;7.05;;
5999;SDS011;3028;49.468;7.694;2024-03-07T08:08:15;9.05;;;8.25;;
5999;SDS011;3028;49.468;7.694;2024-03-07T08:10:20;10.68;;;9.57;;
5999;SDS011;3028;49.468;7.694;2024-03-07T08:12:24;10.45;;;9.50;;
5999;SDS011;3028;49.468;7.694;2024-03-07T08:14:26;9.38;;;8.07;;
5999;SDS011;3028;49.468;7.694;2024-03-07T08:16:30;8.95;;;8.00;;
5999;SDS011;3028;49.468;7.694;2024-03-07T08:18:32;9.95;;;7.50;;
5999;SDS011;3028;49.468;7.694;2024-03-07T08:20:34;8.00;;;7.38;;
5999;SDS011;3028;49.468;7.694;2024-03-07T08:22:37;7.63;;;6.90;;
5999;SDS011;3028;49.468;7.694;2024-03-07T08:24:43;8.40;;;7.60;;
5999;SDS011;3028;49.468;7.694;2024-03-07T08:26:44;7.70;;;7.03;;
5999;SDS011;3028;49.468;7.694;2024-03-07T08:28:48;8.77;;;7.97;;
5999;SDS011;3028;49.468;7.694;2024-03-07T08:30:51;8.57;;;7.80;;
5999;SDS011;3028;49.468;7.694;2024-03-07T08:32:53;7.22;;;6.50;;
5999;SDS011;3028;49.468;7.694;2024-03-07T08:35:01;7.70;;;7.20;;
5999;SDS011;3028;49.468;7.694;2024-03-07T08:37:08;8.43;;;7.72;;
5999;SDS011;3028;49.468;7.694;2024-03-07T08:39:10;8.00;;;7.28;;
5999;SDS011;3028;49.468;7.694;2024-03-07T08:41:16;7.07;;;6.43;;
5999;SDS011;3028;49.468;7.694;2024-03-07T08:43:24;8.23;;;7.47;;
5999;SDS011;3028;49.468;7.694;2024-03-07T08:45:29;8.13;;;7.43;;
5999;SDS011;3028;49.468;7.694;2024-03-07T08:47:37;8.10;;;7.32;;
5999;SDS011;3028;49.468;7.694;2024-03-07T08:49:39;8.15;;;7.32;;
5999;SDS011;3028;49.468;7.694;2024-03-07T08:51:41;10.93;;;7.20;;
5999;SDS011;3028;49.468;7.694;2024-03-07T08:53:43;8.50;;;7.82;;
5999;SDS011;3028;49.468;7.694;2024-03-07T08:55:45;7.28;;;6.68;;
5999;SDS011;3028;49.468;7.694;2024-03-07T08:57:46;6.72;;;6.05;;
5999;SDS011;3028;49.468;7.694;2024-03-07T08:59:50;8.30;;;7.40;;
5999;SDS011;3028;49.468;7.694;2024-03-07T09:01:52;7.18;;;6.40;;
5999;SDS011;3028;49.468;7.694;2024-03-07T09:03:53;6.53;;;5.88;;
5999;SDS011;3028;49.468;7.694;2024-03-07T09:05:55;7.40;;;6.80;;
5999;SDS011;3028;49.468;7.694;2024-03-07T09:07:57;7.78;;;7.07;;
5999;SDS011;3028;49.468;7.694;2024-03-07T09:09:59;6.75;;;6.15;;
5999;SDS011;3028;49.468;7.694;2024-03-07T09:12:01;8.15;;;7.38;;
5999;SDS011;3028;49.468;7.694;2024-03-07T09:14:04;7.55;;;4.80;;
5999;SDS011;3028;49.468;7.694;2024-03-07T09:16:10;7.03;;;6.43;;
5999;SDS011;3028;49.468;7.694;2024-03-07T09:18:13;6.75;;;5.80;;
5999;SDS011;3028;49.468;7.694;2024-03-07T09:20:16;6.28;;;5.68;;
5999;SDS011;3028;49.468;7.694;2024-03-07T09:22:18;6.57;;;6.07;;
5999;SDS011;3028;49.468;7.694;2024-03-07T09:24:20;10.75;;;7.07;;
5999;SDS011;3028;49.468;7.694;2024-03-07T09:26:25;7.25;;;6.38;;
5999;SDS011;3028;49.468;7.694;2024-03-07T09:28:27;13.75;;;5.15;;
5999;SDS011;3028;49.468;7.694;2024-03-07T09:30:28;4.93;;;4.40;;
5999;SDS011;3028;49.468;7.694;2024-03-07T09:32:32;6.28;;;5.78;;
5999;SDS011;3028;49.468;7.694;2024-03-07T09:34:36;6.18;;;5.57;;
5999;SDS011;3028;49.468;7.694;2024-03-07T09:36:38;7.55;;;5.97;;
5999;SDS011;3028;49.468;7.694;2024-03-07T09:38:45;6.95;;;5.93;;
5999;SDS011;3028;49.468;7.694;2024-03-07T09:40:47;5.78;;;4.72;;
5999;SDS011;3028;49.468;7.694;2024-03-07T09:42:49;5.70;;;5.15;;
5999;SDS011;3028;49.468;7.694;2024-03-07T09:44:53;5.72;;;5.22;;
5999;SDS011;3028;49.468;7.694;2024-03-07T09:46:57;5.97;;;5.53;;
5999;SDS011;3028;49.468;7.694;2024-03-07T09:49:01;6.15;;;5.55;;
5999;SDS011;3028;49.468;7.694;2024-03-07T09:51:06;5.05;;;4.47;;
5999;SDS011;3028;49.468;7.694;2024-03-07T09:53:10;5.50;;;4.88;;
5999;SDS011;3028;49.468;7.694;2024-03-07T09:55:12;6.70;;;6.20;;
5999;SDS011;3028;49.468;7.694;2024-03-07T09:57:14;5.22;;;4.72;;
5999;SDS011;3028;49.468;7.694;2024-03-07T09:59:16;5.45;;;5.05;;
5999;SDS011;3028;49.468;7.694;2024-03-07T10:01:22;6.13;;;4.05;;
5999;SDS011;3028;49.468;7.694;2024-03-07T10:03:27;5.50;;;4.72;;
5999;SDS011;3028;49.468;7.694;2024-03-07T10:05:30;5.18;;;4.78;;
5999;SDS011;3028;49.468;7.694;2024-03-07T10:07:33;5.80;;;4.72;;
5999;SDS011;3028;49.468;7.694;2024-03-07T10:09:36;5.10;;;4.60;;
5999;SDS011;3028;49.468;7.694;2024-03-07T10:11:39;5.00;;;4.60;;
5999;SDS011;3028;49.468;7.694;2024-03-07T10:13:43;4.72;;;4.35;;
5999;SDS011;3028;49.468;7.694;2024-03-07T10:15:48;5.05;;;4.65;;
5999;SDS011;3028;49.468;7.694;2024-03-07T10:17:50;5.38;;;4.88;;
5999;SDS011;3028;49.468;7.694;2024-03-07T10:19:52;3.88;;;3.58;;
5999;SDS011;3028;49.468;7.694;2024-03-07T10:21:56;4.38;;;4.07;;
5999;SDS011;3028;49.468;7.694;2024-03-07T10:24:06;4.90;;;4.40;;
5999;SDS011;3028;49.468;7.694;2024-03-07T10:26:09;4.28;;;3.88;;
5999;SDS011;3028;49.468;7.694;2024-03-07T10:28:11;5.82;;;5.28;;
5999;SDS011;3028;49.468;7.694;2024-03-07T10:30:13;6.13;;;5.57;;
5999;SDS011;3028;49.468;7.694;2024-03-07T10:32:22;5.65;;;4.93;;
5999;SDS011;3028;49.468;7.694;2024-03-07T10:34:24;6.88;;;4.38;;
5999;SDS011;3028;49.468;7.694;2024-03-07T10:36:26;6.10;;;5.05;;
5999;SDS011;3028;49.468;7.694;2024-03-07T10:38:29;6.60;;;4.75;;
5999;SDS011;3028;49.468;7.694;2024-03-07T10:40:31;4.90;;;4.47;;
5999;SDS011;3028;49.468;7.694;2024-03-07T10:42:33;4.93;;;4.53;;
5999;SDS011;3028;49.468;7.694;2024-03-07T10:44:37;9.02;;;6.70;;
5999;SDS011;3028;49.468;7.694;2024-03-07T10:46:43;5.88;;;5.28;;
5999;SDS011;3028;49.468;7.694;2024-03-07T10:48:47;5.95;;;4.57;;
5999;SDS011;3028;49.468;7.694;2024-03-07T10:51:14;5.88;;;5.38;;
5999;SDS011;3028;49.468;7.694;2024-03-07T10:56:24;4.25;;;3.85;;
5999;SDS011;3028;49.468;7.694;2024-03-07T11:00:46;5.97;;;5.05;;
5999;SDS011;3028;49.468;7.694;2024-03-07T11:02:48;5.72;;;5.22;;
5999;SDS011;3028;49.468;7.694;2024-03-07T11:04:56;4.95;;;4.60;;
5999;SDS011;3028;49.468;7.694;2024-03-07T11:06:58;4.15;;;3.85;;
5999;SDS011;3028;49.468;7.694;2024-03-07T11:09:00;5.22;;;4.75;;
5999;SDS011;3028;49.468;7.694;2024-03-07T11:11:11;5.97;;;5.38;;
5999;SDS011;3028;49.468;7.694;2024-03-07T11:13:14;5.47;;;4.97;;
5999;SDS011;3028;49.468;7.694;2024-03-07T11:15:19;6.93;;;6.35;;
5999;SDS011;3028;49.468;7.694;2024-03-07T11:17:22;5.97;;;5.32;;
5999;SDS011;3028;49.468;7.694;2024-03-07T11:21:42;12.05;;;6.78;;
5999;SDS011;3028;49.468;7.694;2024-03-07T11:23:45;4.00;;;3.70;;
5999;SDS011;3028;49.468;7.694;2024-03-07T11:25:47;8.73;;;6.78;;
5999;SDS011;3028;49.468;7.694;2024-03-07T11:27:53;5.15;;;4.75;;
5999;SDS011;3028;49.468;7.694;2024-03-07T11:29:59;4.60;;;4.20;;
5999;SDS011;3028;49.468;7.694;2024-03-07T11:32:13;9.32;;;5.20;;
5999;SDS011;3028;49.468;7.694;2024-03-07T11:34:16;5.25;;;4.85;;
5999;SDS011;3028;49.468;7.694;2024-03-07T11:36:41;6.03;;;5.45;;
5999;SDS011;3028;49.468;7.694;2024-03-07T11:38:44;6.55;;;5.22;;
5999;SDS011;3028;49.468;7.694;2024-03-07T11:40:50;5.38;;;4.85;;
5999;SDS011;3028;49.468;7.694;2024-03-07T11:42:52;7.70;;;5.43;;
5999;SDS011;3028;49.468;7.694;2024-03-07T11:44:55;26.55;;;4.82;;
5999;SDS011;3028;49.468;7.694;2024-03-07T11:46:58;6.05;;;5.45;;
5999;SDS011;3028;49.468;7.694;2024-03-07T11:49:03;4.68;;;4.28;;
5999;SDS011;3028;49.468;7.694;2024-03-07T11:51:05;5.05;;;4.55;;
5999;SDS011;3028;49.468;7.694;2024-03-07T11:53:09;5.25;;;4.85;;
5999;SDS011;3028;49.468;7.694;2024-03-07T11:55:12;5.53;;;4.07;;
5999;SDS011;3028;49.468;7.694;2024-03-07T11:57:17;4.80;;;4.40;;
5999;SDS011;3028;49.468;7.694;2024-03-07T11:59:20;6.43;;;5.85;;
5999;SDS011;3028;49.468;7.694;2024-03-07T12:01:26;10.02;;;7.20;;
5999;SDS011;3028;49.468;7.694;2024-03-07T12:03:30;6.88;;;5.95;;
5999;SDS011;3028;49.468;7.694;2024-03-07T12:05:35;7.85;;;3.63;;
5999;SDS011;3028;49.468;7.694;2024-03-07T12:07:37;5.78;;;5.20;;
5999;SDS011;3028;49.468;7.694;2024-03-07T12:09:39;5.25;;;4.78;;
5999;SDS011;3028;49.468;7.694;2024-03-07T12:11:41;5.78;;;5.28;;
5999;SDS011;3028;49.468;7.694;2024-03-07T12:13:44;5.20;;;4.70;;
5999;SDS011;3028;49.468;7.694;2024-03-07T12:15:46;4.78;;;4.38;;
5999;SDS011;3028;49.468;7.694;2024-03-07T12:17:48;4.03;;;3.60;;
5999;SDS011;3028;49.468;7.694;2024-03-07T12:19:52;6.25;;;5.60;;
5999;SDS011;3028;49.468;7.694;2024-03-07T12:21:56;6.47;;;5.78;;
5999;SDS011;3028;49.468;7.694;2024-03-07T12:24:10;10.25;;;5.70;;
5999;SDS011;3028;49.468;7.694;2024-03-07T12:26:13;6.38;;;5.70;;
5999;SDS011;3028;49.468;7.694;2024-03-07T12:28:26;17.30;;;6.47;;
5999;SDS011;3028;49.468;7.694;2024-03-07T12:30:35;6.22;;;5.82;;
5999;SDS011;3028;49.468;7.694;2024-03-07T12:32:46;8.13;;;5.43;;
5999;SDS011;3028;49.468;7.694;2024-03-07T12:34:52;7.82;;;6.07;;
5999;SDS011;3028;49.468;7.694;2024-03-07T12:36:54;6.15;;;5.65;;
5999;SDS011;3028;49.468;7.694;2024-03-07T12:38:57;5.68;;;5.18;;
5999;SDS011;3028;49.468;7.694;2024-03-07T12:41:04;7.45;;;6.20;;
5999;SDS011;3028;49.468;7.694;2024-03-07T12:43:19;6.68;;;5.85;;